KCEC/CEC METAR and TAF weather

Enter ICAO airport designator
Station Type Date Time Source
KCEC METAR 2020/10/20 17:56 UTC NOAA

KCEC 201756Z AUTO 35011KT 6SM HZ CLR 14/10 A3008 RMK AO2 SLP186 T01440100 10144 20111 50003


Station Type Date Time Source
KCEC Decoded METAR 2020/10/20 17:56 UTC NOAA

CRESCENT CITY MC NAMARA, CA, United States (KCEC) 41-47N 124-14W
Oct 20, 2020 - 01:56 PM EDT / 2020.10.20 1756 UTC
Wind: from the N (350 degrees) at 13 MPH (11 KT):0
Visibility: 6 mile(s):0
Sky conditions: clear
Weather: haze
Temperature: 57.9 F (14.4 C)
Dew Point: 50.0 F (10.0 C)
Relative Humidity: 74%
Pressure (altimeter): 30.08 in. Hg (1018 hPa)
Pressure tendency: 0.01 inches (0.3 hPa) higher than three hours ago
ob: KCEC 201756Z AUTO 35011KT 6SM HZ CLR 14/10 A3008 RMK AO2 SLP186 T01440100 10144 20111 50003
cycle: 18

Station Type Date Time Source
KCEC TAF 2020/10/20 18:33 UTC NOAA

TAF KCEC 201731Z 2018/2118 34010KT 5SM HZ SKC
FM202000 34015G25KT 5SM HZ SKC
FM210500 34008KT 3SM BR SKC
FM211200 36005KT 4SM BR SKC

Example: see airport list